Time;durP1;ratioP1;P1;durP2;ratioP2;P2;SDS_P1;SDS_P2;PMS_P1;PMS_P2;Temp;Humidity;BMP_temperature;BMP_pressure;BME280_temperature;BME280_humidity;BME280_pressure;Samples;Min_cycle;Max_cycle;Signal;HPM_P1;HPM_P2
2022/05/23 00:00:03;;;;;;;35.45;18.00;;;27.60;99.90;;;;;;5035788;28;20038;-62
2022/05/23 00:02:30;;;;;;;27.45;16.83;;;27.60;99.90;;;;;;5036317;28;20502;-62
2022/05/23 00:04:56;;;;;;;34.80;17.42;;;27.60;99.90;;;;;;5036616;28;20112;-62
2022/05/23 00:07:29;;;;;;;37.30;17.15;;;27.70;99.90;;;;;;5036717;28;20030;-62
2022/05/23 00:09:55;;;;;;;41.00;18.92;;;27.70;99.90;;;;;;5036191;28;20013;-62
2022/05/23 00:12:23;;;;;;;27.52;17.98;;;27.70;99.90;;;;;;5036442;28;20025;-62
2022/05/23 00:14:50;;;;;;;34.95;17.40;;;27.60;99.90;;;;;;5036579;28;20029;-61
2022/05/23 00:17:17;;;;;;;38.75;21.38;;;27.70;99.90;;;;;;5035847;28;20044;-62
2022/05/23 00:19:44;;;;;;;39.38;19.35;;;27.70;99.90;;;;;;5036052;28;20034;-61
2022/05/23 00:22:12;;;;;;;34.92;18.33;;;27.70;99.90;;;;;;5036426;28;20490;-62
2022/05/23 00:24:41;;;;;;;36.75;18.92;;;27.70;99.90;;;;;;5036701;28;20044;-62
2022/05/23 00:27:10;;;;;;;34.17;21.05;;;27.70;99.90;;;;;;5036279;28;20030;-62
2022/05/23 00:29:37;;;;;;;41.95;24.10;;;27.80;99.90;;;;;;5035810;28;20029;-62
2022/05/23 00:37:27;;;;;;;35.60;23.63;;;28.00;99.90;;;;;;5036317;28;20490;-62
2022/05/23 00:39:54;;;;;;;32.20;20.45;;;28.00;99.90;;;;;;5036179;28;20029;-64
2022/05/23 00:45:15;;;;;;;21.47;15.30;;;28.10;99.90;;;;;;5035997;28;20029;-63
2022/05/23 00:47:45;;;;;;;36.22;22.23;;;28.20;99.90;;;;;;5036051;28;20282;-63
2022/05/23 00:50:16;;;;;;;45.38;27.02;;;28.30;99.90;;;;;;5035277;28;20025;-63
2022/05/23 00:52:56;;;;;;;24.90;13.98;;;28.40;99.90;;;;;;5035923;28;20175;-63
2022/05/23 00:55:45;;;;;;;25.70;13.65;;;28.50;99.90;;;;;;5035783;28;20486;-64
2022/05/23 00:58:20;;;;;;;28.58;16.52;;;28.60;99.90;;;;;;4993154;28;20042;-64
2022/05/23 01:00:47;;;;;;;33.55;16.67;;;28.70;99.90;;;;;;4994169;28;20030;-65
2022/05/23 01:03:17;;;;;;;51.03;16.73;;;28.80;99.90;;;;;;4994412;28;20030;-65
2022/05/23 01:05:45;;;;;;;49.25;15.77;;;28.90;99.90;;;;;;4994272;28;20034;-64
2022/05/23 01:08:16;;;;;;;25.50;16.05;;;28.90;99.90;;;;;;4993115;28;20089;-64
2022/05/23 01:10:43;;;;;;;22.33;15.98;;;29.00;99.90;;;;;;4993381;28;20054;-64
2022/05/23 01:13:10;;;;;;;38.70;23.63;;;29.00;99.90;;;;;;4993192;28;20080;-63
2022/05/23 01:15:37;;;;;;;50.05;31.13;;;29.10;99.90;;;;;;4992436;28;20124;-63
2022/05/23 01:18:04;;;;;;;28.20;16.65;;;29.20;99.90;;;;;;4992809;28;20545;-62
2022/05/23 01:20:31;;;;;;;35.58;18.65;;;29.20;99.90;;;;;;4991163;28;20551;-62
2022/05/23 01:23:09;;;;;;;31.17;14.23;;;29.20;99.90;;;;;;4993678;28;20026;-63
2022/05/23 01:25:40;;;;;;;17.50;12.35;;;29.20;99.90;;;;;;4993929;28;20511;-63
2022/05/23 01:28:07;;;;;;;22.95;11.88;;;29.30;99.90;;;;;;4993759;28;20249;-64
2022/05/23 01:30:35;;;;;;;26.10;13.27;;;29.40;99.90;;;;;;4993934;28;20030;-63
2022/05/23 01:33:02;;;;;;;25.88;14.38;;;29.40;99.90;;;;;;4993725;28;20023;-64
2022/05/23 01:35:29;;;;;;;27.92;15.77;;;29.50;99.90;;;;;;4992891;28;20050;-64
2022/05/23 01:37:56;;;;;;;20.50;12.90;;;29.50;99.90;;;;;;4993646;28;20035;-62
2022/05/23 01:40:23;;;;;;;24.75;13.10;;;29.50;99.90;;;;;;4993588;28;20033;-62
2022/05/23 01:42:50;;;;;;;31.52;15.60;;;29.50;99.90;;;;;;4992210;28;20018;-62
2022/05/23 01:45:20;;;;;;;23.73;11.80;;;29.60;99.90;;;;;;4992496;28;20267;-61
2022/05/23 01:47:47;;;;;;;15.32;11.05;;;29.60;99.90;;;;;;4992827;28;20073;-62
2022/05/23 01:50:14;;;;;;;16.65;9.57;;;29.60;99.90;;;;;;4992568;28;20482;-62
2022/05/23 01:52:41;;;;;;;21.23;10.23;;;29.70;99.90;;;;;;4993318;28;20031;-63
2022/05/23 01:55:08;;;;;;;17.58;9.80;;;29.90;99.90;;;;;;5024744;28;20045;-62
2022/05/23 01:57:35;;;;;;;19.92;9.43;;;30.00;99.90;;;;;;5034610;28;20021;-63
2022/05/23 02:02:52;;;;;;;18.33;9.50;;;30.00;99.90;;;;;;5033559;28;20041;-63
2022/05/23 02:05:19;;;;;;;16.55;9.70;;;30.10;99.90;;;;;;5033991;28;20032;-64
2022/05/23 02:07:45;;;;;;;19.33;9.15;;;30.10;99.90;;;;;;5033871;28;20025;-63
2022/05/23 02:10:13;;;;;;;19.75;10.95;;;30.10;99.90;;;;;;5033855;28;20029;-64
2022/05/23 02:12:40;;;;;;;16.83;8.52;;;30.10;99.90;;;;;;5034392;28;20026;-64
2022/05/23 02:15:08;;;;;;;24.65;12.65;;;30.10;99.90;;;;;;5034381;28;20040;-64
2022/05/23 02:17:35;;;;;;;22.73;11.15;;;30.20;99.90;;;;;;5033258;28;20398;-63
2022/05/23 02:20:02;;;;;;;19.88;11.45;;;30.30;99.90;;;;;;5032897;28;20529;-63
2022/05/23 02:22:29;;;;;;;20.92;11.88;;;30.30;99.90;;;;;;5034305;28;20034;-63
2022/05/23 02:24:56;;;;;;;18.95;10.75;;;30.30;99.90;;;;;;5034050;28;20434;-63
2022/05/23 02:27:22;;;;;;;21.95;8.07;;;30.40;99.90;;;;;;5034092;28;20034;-62
2022/05/23 02:29:49;;;;;;;13.38;8.38;;;30.30;99.90;;;;;;5026627;28;20021;-63
2022/05/23 02:32:16;;;;;;;29.08;18.75;;;30.30;99.90;;;;;;5035093;28;20096;-63
2022/05/23 02:34:42;;;;;;;26.50;11.35;;;30.30;99.90;;;;;;5032002;28;20033;-63
2022/05/23 02:37:10;;;;;;;20.88;9.23;;;30.40;99.90;;;;;;5033881;28;20033;-63
2022/05/23 02:39:37;;;;;;;17.02;8.60;;;30.40;99.90;;;;;;5032422;28;20486;-63
2022/05/23 02:42:04;;;;;;;17.48;8.65;;;30.50;99.90;;;;;;5030122;28;20066;-65
2022/05/23 02:44:31;;;;;;;16.45;6.85;;;30.50;99.90;;;;;;5033443;28;20120;-62
2022/05/23 02:46:57;;;;;;;14.57;7.65;;;30.60;99.90;;;;;;5033444;28;20591;-61
2022/05/23 02:49:24;;;;;;;15.05;9.00;;;30.60;99.90;;;;;;5033901;28;20319;-62
2022/05/23 02:51:51;;;;;;;16.30;7.75;;;30.70;99.90;;;;;;5030545;28;20087;-61
2022/05/23 02:54:17;;;;;;;14.15;7.22;;;30.80;99.90;;;;;;5032679;28;20036;-64
2022/05/23 02:56:44;;;;;;;12.48;7.68;;;30.80;99.90;;;;;;5033726;28;20026;-61
2022/05/23 02:59:11;;;;;;;17.33;9.85;;;30.80;99.90;;;;;;5031348;28;20017;-63
2022/05/23 03:03:01;;;;;;;17.42;10.00;;;30.90;99.90;;;;;;5029243;28;20057;-62
2022/05/23 03:04:24;;;;;;;13.10;7.15;;;30.90;99.90;;;;;;5018364;28;20076;-61
2022/05/23 03:06:51;;;;;;;16.63;8.60;;;30.90;99.90;;;;;;5032939;28;20032;-62
2022/05/23 03:09:18;;;;;;;16.02;9.43;;;31.00;99.90;;;;;;5033325;28;20498;-63
2022/05/23 03:11:45;;;;;;;18.20;9.90;;;31.10;99.90;;;;;;5032491;28;20036;-63
2022/05/23 03:14:11;;;;;;;21.48;10.90;;;31.30;99.90;;;;;;5033417;28;20037;-62
2022/05/23 03:16:38;;;;;;;23.17;9.55;;;31.40;99.90;;;;;;5030309;28;20101;-62
2022/05/23 03:19:05;;;;;;;17.05;8.60;;;31.20;99.90;;;;;;5029837;28;20051;-63
2022/05/23 03:27:02;;;;;;;13.15;8.38;;;31.30;99.90;;;;;;5031081;28;20034;-62
2022/05/23 03:29:30;;;;;;;19.13;9.68;;;31.50;99.90;;;;;;5031592;28;20110;-62
2022/05/23 03:31:57;;;;;;;12.57;8.63;;;31.60;99.90;;;;;;5032703;28;20364;-62
2022/05/23 03:34:24;;;;;;;17.23;10.75;;;31.80;99.90;;;;;;5034103;28;20075;-64
2022/05/23 03:36:51;;;;;;;17.42;9.10;;;31.90;99.90;;;;;;5034150;28;20414;-63
2022/05/23 03:39:17;;;;;;;15.90;9.18;;;31.90;99.90;;;;;;5037197;28;20064;-63
2022/05/23 03:41:44;;;;;;;14.05;6.93;;;31.90;99.90;;;;;;5035077;28;20150;-63
2022/05/23 03:44:11;;;;;;;12.43;7.00;;;31.80;99.90;;;;;;5035966;28;20018;-63
2022/05/23 03:46:38;;;;;;;23.98;10.90;;;31.80;99.90;;;;;;5035734;28;20029;-63
2022/05/23 03:49:07;;;;;;;13.77;9.70;;;31.80;99.90;;;;;;5037362;28;20466;-63
2022/05/23 03:51:34;;;;;;;20.02;12.13;;;31.90;99.90;;;;;;5034378;28;20448;-63
2022/05/23 03:54:01;;;;;;;26.05;14.60;;;32.00;99.90;;;;;;5036881;28;20056;-62
2022/05/23 03:56:28;;;;;;;19.70;11.95;;;32.00;99.90;;;;;;5035780;28;20038;-61
2022/05/23 03:58:55;;;;;;;15.27;8.82;;;32.10;99.90;;;;;;5036882;28;20060;-61
2022/05/23 04:01:24;;;;;;;18.92;9.63;;;32.10;99.90;;;;;;5038661;28;20033;-62
2022/05/23 04:03:51;;;;;;;17.40;9.77;;;32.20;99.90;;;;;;5047530;28;20497;-62
2022/05/23 04:06:18;;;;;;;18.38;9.05;;;32.20;99.90;;;;;;5043073;28;20025;-64
2022/05/23 04:08:44;;;;;;;18.70;8.88;;;32.30;99.90;;;;;;5034527;28;20030;-62
2022/05/23 04:11:11;;;;;;;12.88;8.13;;;32.30;99.90;;;;;;5036802;28;20545;-62
2022/05/23 04:13:38;;;;;;;16.83;9.77;;;32.40;99.90;;;;;;5035919;28;20098;-62
2022/05/23 04:16:05;;;;;;;23.35;9.02;;;32.60;99.90;;;;;;5036975;28;20029;-62
2022/05/23 04:18:33;;;;;;;18.88;9.05;;;32.60;99.90;;;;;;5035647;28;20116;-62
2022/05/23 04:21:01;;;;;;;12.02;8.75;;;32.70;99.90;;;;;;5035907;28;20148;-62
2022/05/23 04:23:28;;;;;;;14.70;8.02;;;32.60;99.90;;;;;;5031201;28;20044;-61
2022/05/23 04:25:59;;;;;;;12.23;7.05;;;32.50;99.90;;;;;;5036675;28;20025;-59
2022/05/23 04:28:25;;;;;;;19.60;10.43;;;32.50;99.90;;;;;;5035165;28;20067;-61
2022/05/23 04:30:52;;;;;;;13.63;8.60;;;32.70;99.90;;;;;;5035837;28;20040;-62
2022/05/23 04:36:05;;;;;;;24.30;14.40;;;32.60;99.20;;;;;;5034424;28;20036;-62
2022/05/23 04:38:32;;;;;;;18.38;12.57;;;32.50;98.40;;;;;;5045179;28;20017;-62
2022/05/23 04:40:59;;;;;;;10.38;7.13;;;32.60;98.70;;;;;;5038590;28;20021;-64
2022/05/23 04:43:26;;;;;;;13.27;8.18;;;32.70;98.10;;;;;;5035866;28;20116;-62
2022/05/23 04:45:53;;;;;;;12.70;8.75;;;32.70;98.50;;;;;;5040975;28;20076;-61
2022/05/23 04:50:54;;;;;;;14.15;8.02;;;32.80;99.50;;;;;;5042413;28;20108;-62
2022/05/23 04:53:21;;;;;;;10.43;7.13;;;32.70;99.10;;;;;;5034518;28;20071;-70
2022/05/23 04:55:48;;;;;;;11.43;8.40;;;32.70;99.30;;;;;;5035325;28;20124;-66
2022/05/23 04:58:15;;;;;;;15.00;8.73;;;32.60;99.70;;;;;;5036671;28;20534;-66
2022/05/23 05:00:43;;;;;;;18.70;9.38;;;32.60;99.90;;;;;;5036650;28;20052;-66
2022/05/23 05:03:13;;;;;;;13.40;8.25;;;32.60;99.90;;;;;;5036832;28;20087;-64
2022/05/23 05:05:40;;;;;;;19.50;9.60;;;32.50;99.90;;;;;;5042435;28;20105;-67
2022/05/23 05:08:06;;;;;;;19.10;13.70;;;32.40;99.90;;;;;;5043952;28;20013;-68
2022/05/23 05:10:33;;;;;;;14.30;8.70;;;32.40;99.90;;;;;;5044211;28;20032;-68
2022/05/23 05:13:00;;;;;;;8.98;6.82;;;32.40;99.90;;;;;;5040665;28;20301;-69
2022/05/23 05:15:28;;;;;;;12.75;8.10;;;32.30;99.90;;;;;;5044175;28;20079;-70
2022/05/23 05:17:56;;;;;;;18.80;7.85;;;32.40;99.90;;;;;;5038669;28;20053;-70
2022/05/23 05:20:23;;;;;;;10.32;7.05;;;32.50;99.90;;;;;;5034963;28;20033;-69
2022/05/23 05:22:51;;;;;;;13.48;7.70;;;32.40;98.80;;;;;;5031712;28;20474;-70
2022/05/23 05:25:19;;;;;;;13.30;10.75;;;32.50;99.60;;;;;;5035553;28;20065;-69
2022/05/23 05:27:46;;;;;;;15.43;8.23;;;32.70;99.90;;;;;;5035176;28;20064;-71
2022/05/23 05:30:19;;;;;;;19.25;7.75;;;32.70;99.30;;;;;;5035469;28;20104;-72
2022/05/23 05:32:58;;;;;;;11.13;8.95;;;32.80;98.20;;;;;;5031907;28;20153;-71
2022/05/23 05:35:31;;;;;;;10.20;7.90;;;33.00;98.30;;;;;;5015656;28;20033;-71
2022/05/23 05:38:01;;;;;;;12.32;7.82;;;33.20;96.90;;;;;;5032251;28;20021;-73
2022/05/23 05:40:30;;;;;;;13.07;7.78;;;33.30;95.90;;;;;;5038237;28;20095;-72
2022/05/23 05:43:08;;;;;;;11.00;8.00;;;33.20;95.70;;;;;;5042513;28;20017;-72
2022/05/23 05:45:42;;;;;;;12.13;7.88;;;33.30;95.40;;;;;;5036422;28;20091;-71
2022/05/23 05:48:10;;;;;;;10.10;8.43;;;33.40;94.70;;;;;;5039920;28;20029;-72
2022/05/23 05:50:39;;;;;;;17.75;8.30;;;33.40;94.50;;;;;;5043736;28;20036;-70
2022/05/23 05:53:10;;;;;;;11.38;7.80;;;33.50;94.50;;;;;;5043034;28;20018;-66
2022/05/23 05:55:41;;;;;;;11.07;8.18;;;33.60;93.30;;;;;;5035317;28;20040;-67
2022/05/23 05:58:09;;;;;;;13.57;8.65;;;33.80;93.70;;;;;;5032805;28;20033;-70
2022/05/23 06:00:36;;;;;;;9.18;6.65;;;33.70;93.50;;;;;;5042622;28;20082;-69
2022/05/23 06:03:03;;;;;;;16.48;7.60;;;33.80;94.40;;;;;;5036109;28;20045;-70
2022/05/23 06:05:29;;;;;;;10.00;6.80;;;33.80;94.90;;;;;;5042095;28;20079;-71
2022/05/23 06:13:30;;;;;;;11.15;7.00;;;33.80;93.50;;;;;;5038281;28;20036;-61
2022/05/23 06:15:57;;;;;;;11.20;8.65;;;33.80;94.10;;;;;;5034005;28;20045;-61
2022/05/23 06:18:24;;;;;;;12.88;7.97;;;33.90;93.90;;;;;;5031471;28;20048;-62
2022/05/23 06:20:53;;;;;;;11.70;8.13;;;34.00;93.40;;;;;;5033220;28;20034;-62
2022/05/23 06:23:19;;;;;;;16.20;8.00;;;34.10;93.40;;;;;;5029876;28;20037;-60
2022/05/23 06:25:46;;;;;;;13.13;7.82;;;34.20;92.80;;;;;;5032975;28;20021;-61
2022/05/23 06:28:13;;;;;;;11.73;7.68;;;34.30;92.10;;;;;;5032625;28;20106;-62
2022/05/23 06:30:40;;;;;;;14.05;8.23;;;34.30;92.30;;;;;;5032905;28;20025;-62
2022/05/23 06:33:07;;;;;;;10.13;7.70;;;34.40;91.40;;;;;;5033340;28;20029;-62
2022/05/23 06:35:33;;;;;;;10.23;7.63;;;34.20;91.40;;;;;;5033698;28;20037;-61
2022/05/23 06:38:00;;;;;;;10.88;7.78;;;34.10;91.70;;;;;;5033037;28;20018;-61
2022/05/23 06:40:27;;;;;;;12.73;7.10;;;34.00;92.30;;;;;;5043377;28;20055;-61
2022/05/23 06:42:54;;;;;;;15.93;9.32;;;33.90;91.90;;;;;;5050340;28;20321;-59
2022/05/23 06:45:21;;;;;;;13.27;7.88;;;33.90;92.10;;;;;;5030975;28;20037;-60
2022/05/23 06:47:48;;;;;;;15.35;8.20;;;33.90;92.50;;;;;;5033949;28;20048;-65
2022/05/23 06:50:15;;;;;;;15.55;8.98;;;34.10;92.40;;;;;;5034350;28;20109;-60
2022/05/23 06:52:42;;;;;;;19.73;8.35;;;34.30;92.00;;;;;;5032568;28;20088;-62
2022/05/23 06:55:09;;;;;;;14.40;8.35;;;34.60;92.10;;;;;;5035626;28;20033;-60
2022/05/23 06:57:35;;;;;;;14.48;7.75;;;34.70;91.30;;;;;;5042341;28;20034;-62
2022/05/23 07:00:03;;;;;;;16.67;8.50;;;34.70;90.70;;;;;;5036523;28;20041;-62
2022/05/23 07:02:30;;;;;;;12.18;8.38;;;34.50;90.70;;;;;;5036040;28;20036;-61
2022/05/23 07:13:05;;;;;;;15.48;8.32;;;34.60;90.20;;;;;;5033532;28;20018;-58
2022/05/23 07:15:36;;;;;;;11.60;9.57;;;34.70;90.40;;;;;;5033007;28;20025;-61
2022/05/23 07:18:04;;;;;;;17.35;9.77;;;34.70;88.50;;;;;;5032980;28;20045;-62
2022/05/23 07:20:31;;;;;;;13.43;9.70;;;34.70;87.80;;;;;;5033421;28;20054;-62
2022/05/23 07:22:58;;;;;;;12.48;9.52;;;34.70;87.10;;;;;;5032259;28;20119;-61
2022/05/23 07:25:25;;;;;;;11.02;9.38;;;34.70;87.30;;;;;;5032230;28;20025;-62
2022/05/23 07:27:51;;;;;;;13.23;8.75;;;34.60;86.00;;;;;;5029984;28;20037;-65
2022/05/23 07:30:19;;;;;;;12.90;8.35;;;34.80;86.80;;;;;;5041922;28;20027;-61
2022/05/23 07:32:46;;;;;;;32.05;23.02;;;34.80;85.70;;;;;;5033863;28;20132;-61
2022/05/23 07:35:13;;;;;;;23.38;14.57;;;34.80;87.70;;;;;;5042358;28;20033;-62
2022/05/23 07:37:39;;;;;;;26.48;17.15;;;34.70;86.60;;;;;;5041830;28;20104;-62
2022/05/23 07:40:06;;;;;;;15.23;9.82;;;34.70;87.50;;;;;;5042477;28;20405;-62
2022/05/23 07:42:33;;;;;;;13.48;9.07;;;34.70;87.50;;;;;;5043630;28;20482;-61
2022/05/23 07:45:00;;;;;;;15.13;11.13;;;34.70;86.30;;;;;;5041202;28;20097;-61
2022/05/23 07:47:26;;;;;;;35.30;26.70;;;34.80;86.90;;;;;;5042548;28;20021;-62
2022/05/23 07:49:53;;;;;;;19.33;13.50;;;34.90;87.40;;;;;;5041533;28;20335;-62
2022/05/23 07:52:20;;;;;;;28.38;20.08;;;34.80;85.40;;;;;;5043116;28;20025;-62
2022/05/23 08:02:55;;;;;;;24.40;17.95;;;34.90;83.40;;;;;;5052301;28;20114;-61
2022/05/23 08:05:22;;;;;;;24.52;17.10;;;34.80;84.60;;;;;;5034121;28;20025;-62
2022/05/23 08:07:49;;;;;;;39.17;22.20;;;34.80;84.90;;;;;;5032856;28;20018;-62
2022/05/23 08:10:16;;;;;;;27.35;16.55;;;34.80;83.60;;;;;;5030039;28;20028;-63
2022/05/23 08:12:47;;;;;;;29.65;17.45;;;34.90;84.50;;;;;;5032701;28;20030;-62
2022/05/23 08:15:14;;;;;;;;;;;34.90;85.60;;;;;;5033434;28;20021;-63
2022/05/23 08:17:40;;;;;;;41.00;32.45;;;34.80;82.50;;;;;;5030692;28;20384;-62
2022/05/23 08:20:08;;;;;;;35.85;25.40;;;34.80;84.80;;;;;;5033767;28;20029;-63
2022/05/23 08:22:34;;;;;;;46.95;39.17;;;34.80;84.30;;;;;;5035514;28;20104;-61
2022/05/23 08:25:01;;;;;;;17.85;13.75;;;34.90;84.70;;;;;;5035768;28;20037;-63
2022/05/23 08:27:28;;;;;;;11.98;9.90;;;35.00;82.40;;;;;;5036188;28;20025;-63
2022/05/23 08:29:54;;;;;;;13.18;10.57;;;34.90;80.40;;;;;;5036572;28;20048;-64
2022/05/23 08:32:21;;;;;;;13.43;10.23;;;34.80;82.00;;;;;;5029236;28;20406;-63
2022/05/23 08:34:48;;;;;;;19.00;12.20;;;34.80;83.20;;;;;;5034101;28;20037;-63
2022/05/23 08:37:15;;;;;;;30.52;22.25;;;35.00;82.70;;;;;;5034010;28;20104;-62
2022/05/23 08:39:42;;;;;;;15.55;10.52;;;35.10;81.10;;;;;;5024361;28;20026;-62
2022/05/23 08:42:22;;;;;;;14.88;11.07;;;35.10;81.40;;;;;;5036487;28;20033;-62
2022/05/23 08:45:10;;;;;;;17.00;10.63;;;35.10;81.50;;;;;;5032863;28;20033;-62
2022/05/23 08:47:58;;;;;;;13.57;10.35;;;35.10;80.50;;;;;;5025061;28;20030;-61
2022/05/23 08:50:52;;;;;;;23.75;12.85;;;35.00;81.50;;;;;;4974202;28;20524;-58
2022/05/23 08:53:42;;;;;;;27.35;15.25;;;35.00;83.10;;;;;;4971905;28;20031;-60
2022/05/23 08:56:24;;;;;;;25.10;13.20;;;35.00;80.80;;;;;;4969868;28;20133;-60
2022/05/23 08:58:55;;;;;;;29.13;16.63;;;34.90;79.70;;;;;;4969924;28;20468;-62
2022/05/23 09:01:46;;;;;;;34.47;19.52;;;34.90;79.20;;;;;;4980542;28;20447;-60
2022/05/23 09:04:24;;;;;;;23.27;15.43;;;34.80;78.80;;;;;;4985609;28;20568;-61
2022/05/23 09:06:51;;;;;;;17.90;11.27;;;34.70;80.10;;;;;;4969406;28;20027;-61
2022/05/23 09:09:21;;;;;;;20.48;14.25;;;34.80;79.70;;;;;;4973139;28;20404;-61
2022/05/23 09:11:55;;;;;;;32.20;25.45;;;34.70;79.50;;;;;;4974481;28;20419;-61
2022/05/23 09:14:23;;;;;;;29.00;15.32;;;34.70;80.40;;;;;;4974069;28;20046;-62
2022/05/23 09:16:53;;;;;;;28.48;17.45;;;34.70;80.70;;;;;;4973928;28;20047;-60
2022/05/23 09:19:40;;;;;;;33.75;19.70;;;34.70;79.60;;;;;;4973920;28;20054;-60
2022/05/23 09:22:19;;;;;;;29.40;14.30;;;34.70;80.00;;;;;;4955251;28;20031;-63
2022/05/23 09:24:49;;;;;;;25.35;14.15;;;34.60;80.90;;;;;;4968011;28;20047;-62
2022/05/23 09:27:20;;;;;;;30.50;17.02;;;34.60;79.60;;;;;;4998934;28;20486;-60
2022/05/23 09:29:53;;;;;;;35.92;18.83;;;34.50;80.40;;;;;;5033669;28;20025;-61
2022/05/23 09:32:25;;;;;;;25.95;16.75;;;34.50;80.20;;;;;;5032319;28;20127;-61
2022/05/23 09:34:57;;;;;;;30.23;18.92;;;34.50;81.40;;;;;;5034405;28;20120;-60
2022/05/23 09:37:38;;;;;;;34.95;20.70;;;34.50;81.00;;;;;;5033977;28;20116;-59
2022/05/23 09:40:09;;;;;;;59.95;38.95;;;34.50;81.40;;;;;;5034143;28;20037;-65
2022/05/23 09:48:16;;;;;;;66.28;45.53;;;34.20;81.90;;;;;;5034219;28;20025;-60
2022/05/23 09:50:55;;;;;;;67.97;48.53;;;34.10;84.70;;;;;;5035015;28;20017;-61
2022/05/23 09:53:26;;;;;;;46.58;39.10;;;34.10;84.10;;;;;;5033404;28;20029;-61
2022/05/23 09:55:53;;;;;;;60.10;41.60;;;34.10;84.70;;;;;;5033946;28;20026;-61
2022/05/23 09:58:35;;;;;;;45.70;33.72;;;34.10;85.30;;;;;;5034121;28;20025;-61
2022/05/23 10:01:07;;;;;;;44.88;34.03;;;34.20;86.20;;;;;;5033877;28;20026;-62
2022/05/23 10:03:36;;;;;;;37.28;26.40;;;34.20;85.10;;;;;;5031387;28;20092;-63
2022/05/23 10:06:14;;;;;;;90.47;64.72;;;34.10;85.20;;;;;;5026788;28;20029;-62
2022/05/23 10:08:43;;;;;;;61.75;46.92;;;34.10;85.50;;;;;;5033366;28;20328;-64
2022/05/23 10:11:28;;;;;;;79.63;53.50;;;34.00;86.20;;;;;;5034495;28;20075;-64
2022/05/23 10:13:59;;;;;;;101.72;66.05;;;34.00;86.10;;;;;;5041360;28;21065;-66
2022/05/23 10:16:28;;;;;;;56.63;42.22;;;34.00;85.70;;;;;;5032488;28;20029;-64
2022/05/23 10:19:03;;;;;;;47.97;35.50;;;33.90;84.90;;;;;;5031967;28;20529;-63
2022/05/23 10:21:43;;;;;;;95.55;61.67;;;33.90;85.80;;;;;;5033107;28;20091;-63
2022/05/23 10:24:25;;;;;;;127.70;84.20;;;33.90;86.30;;;;;;5036084;28;20434;-62
2022/05/23 10:27:13;;;;;;;122.22;76.03;;;33.90;84.90;;;;;;5038609;28;20025;-63
2022/05/23 10:29:51;;;;;;;97.80;58.65;;;33.80;85.10;;;;;;5037704;28;20132;-64
2022/05/23 10:32:41;;;;;;;65.68;43.92;;;33.80;86.20;;;;;;5045263;28;20470;-63
2022/05/23 10:35:17;;;;;;;63.97;43.78;;;33.80;87.40;;;;;;5035656;28;20075;-63
2022/05/23 10:37:46;;;;;;;102.13;69.10;;;33.80;87.80;;;;;;5041547;28;20347;-62
2022/05/23 10:43:20;;;;;;;70.85;51.08;;;33.80;89.10;;;;;;5038074;28;20029;-62
2022/05/23 10:45:53;;;;;;;59.55;43.25;;;33.80;89.90;;;;;;5031719;28;20064;-63
2022/05/23 10:48:24;;;;;;;57.40;38.25;;;33.80;89.70;;;;;;5028541;28;20486;-63
2022/05/23 10:51:31;;;;;;;51.60;36.75;;;33.70;89.20;;;;;;5038863;28;20021;-62
2022/05/23 10:53:58;;;;;;;44.15;33.67;;;33.70;89.10;;;;;;5038029;28;20038;-62
2022/05/23 10:56:37;;;;;;;49.97;33.00;;;33.60;88.20;;;;;;5042721;28;20017;-61
2022/05/23 10:59:14;;;;;;;55.70;40.97;;;33.60;89.30;;;;;;5035087;28;20121;-61
2022/05/23 11:01:56;;;;;;;64.93;47.00;;;33.70;88.80;;;;;;5036797;28;20050;-63
2022/05/23 11:04:44;;;;;;;57.85;40.03;;;33.60;89.00;;;;;;5036429;28;20033;-62
2022/05/23 11:07:40;;;;;;;48.38;34.65;;;33.60;89.40;;;;;;5037490;28;20025;-62
2022/05/23 11:10:15;;;;;;;57.28;35.65;;;33.60;89.70;;;;;;5040782;28;20040;-63
2022/05/23 11:12:53;;;;;;;103.72;74.45;;;33.60;89.80;;;;;;5037929;28;20041;-64
2022/05/23 11:15:41;;;;;;;95.55;70.43;;;33.50;89.10;;;;;;5043015;28;20484;-66
2022/05/23 11:18:16;;;;;;;116.72;71.07;;;33.50;89.90;;;;;;5038146;28;20045;-63
2022/05/23 11:20:43;;;;;;;123.47;74.82;;;33.40;90.30;;;;;;5038448;28;20029;-65
2022/05/23 11:23:15;;;;;;;81.75;48.47;;;33.30;89.60;;;;;;5039401;28;20818;-65
2022/05/23 11:25:47;;;;;;;73.55;55.00;;;33.20;90.70;;;;;;5037721;28;20026;-65
2022/05/23 11:34:21;;;;;;;37.90;21.08;;;32.80;92.40;;;;;;5032248;28;20501;-65
2022/05/23 11:39:56;;;;;;;32.35;18.52;;;31.90;92.50;;;;;;5032306;28;20117;-62
2022/05/23 11:42:30;;;;;;;27.92;16.83;;;31.50;93.60;;;;;;5028853;28;20075;-64
2022/05/23 11:48:01;;;;;;;67.93;46.63;;;31.00;96.70;;;;;;5041470;28;20486;-63
2022/05/23 11:50:32;;;;;;;82.53;51.78;;;30.80;99.20;;;;;;5030055;28;20045;-62
2022/05/23 11:53:18;;;;;;;29.60;18.30;;;30.60;99.90;;;;;;5035971;28;20029;-63
2022/05/23 11:55:54;;;;;;;109.75;78.05;;;30.10;99.90;;;;;;5041445;28;20026;-62
2022/05/23 11:58:24;;;;;;;20.88;12.10;;;29.60;99.90;;;;;;5051858;28;20029;-63
2022/05/23 12:01:11;;;;;;;25.52;10.70;;;29.30;99.90;;;;;;5053296;28;20056;-63
2022/05/23 12:03:58;;;;;;;14.25;7.68;;;28.80;99.90;;;;;;5044215;28;20026;-62
2022/05/23 12:06:25;;;;;;;14.40;8.23;;;28.40;99.90;;;;;;5013051;28;20431;-63
2022/05/23 12:09:22;;;;;;;13.93;6.00;;;28.20;99.90;;;;;;5018219;28;20520;-63
2022/05/23 12:12:28;;;;;;;11.75;6.50;;;28.10;99.90;;;;;;5022800;28;20038;-63
2022/05/23 12:14:56;;;;;;;10.00;5.60;;;28.20;99.90;;;;;;4965051;28;20031;-65
2022/05/23 12:17:31;;;;;;;14.95;6.15;;;28.20;99.90;;;;;;4971721;28;20474;-61
2022/05/23 12:20:05;;;;;;;11.50;5.82;;;28.20;99.90;;;;;;4972037;28;20039;-63
2022/05/23 12:23:01;;;;;;;10.02;5.20;;;28.20;99.90;;;;;;4974159;28;20037;-62
2022/05/23 12:25:28;;;;;;;8.18;5.50;;;28.30;99.90;;;;;;4972904;28;20130;-63
2022/05/23 12:28:08;;;;;;;5.93;4.80;;;28.40;99.90;;;;;;4973953;28;20118;-63
2022/05/23 12:30:41;;;;;;;12.63;6.05;;;28.50;99.90;;;;;;4973994;28;20102;-63
2022/05/23 12:33:19;;;;;;;8.50;5.85;;;28.50;99.90;;;;;;4968515;28;20729;-63
2022/05/23 12:35:54;;;;;;;8.57;5.50;;;28.60;99.90;;;;;;4968680;28;20047;-62
2022/05/23 12:38:22;;;;;;;8.90;6.63;;;28.60;99.90;;;;;;4969879;28;20146;-62
2022/05/23 12:41:07;;;;;;;15.13;7.97;;;28.70;99.90;;;;;;4973128;28;20030;-64
2022/05/23 12:44:03;;;;;;;14.05;8.77;;;28.50;99.90;;;;;;4973779;28;20027;-63
2022/05/23 12:46:41;;;;;;;14.15;8.45;;;28.40;99.90;;;;;;4925377;29;20036;-64
2022/05/23 12:49:18;;;;;;;15.88;8.23;;;28.40;99.90;;;;;;4922954;29;20040;-63
2022/05/23 12:52:01;;;;;;;12.35;7.70;;;28.30;99.90;;;;;;4948604;28;20042;-63
2022/05/23 12:54:31;;;;;;;9.70;6.78;;;28.30;99.90;;;;;;4973942;28;20039;-63
2022/05/23 12:57:39;;;;;;;8.85;6.13;;;28.50;99.90;;;;;;4985331;28;20304;-63
2022/05/23 13:00:16;;;;;;;5.53;4.30;;;28.60;99.90;;;;;;4979762;28;20479;-64
2022/05/23 13:02:53;;;;;;;9.88;4.60;;;28.40;99.90;;;;;;4979081;28;20039;-63
2022/05/23 13:05:26;;;;;;;7.55;5.20;;;28.40;99.90;;;;;;4983143;28;20514;-63
2022/05/23 13:08:06;;;;;;;9.70;5.10;;;28.40;99.90;;;;;;4976060;28;20076;-63
2022/05/23 13:10:39;;;;;;;6.15;4.78;;;28.30;99.90;;;;;;4976908;28;20042;-63
2022/05/23 13:13:27;;;;;;;5.45;4.35;;;28.20;99.90;;;;;;4980450;28;20033;-63
2022/05/23 13:15:54;;;;;;;8.05;4.88;;;28.10;99.90;;;;;;4983064;28;20030;-63
2022/05/23 13:23:55;;;;;;;9.70;6.20;;;28.00;99.90;;;;;;5031523;28;20486;-63
2022/05/23 13:26:26;;;;;;;9.75;5.78;;;27.90;99.90;;;;;;5051986;28;20478;-63
2022/05/23 13:28:53;;;;;;;6.82;5.28;;;27.80;99.90;;;;;;5043085;28;20025;-63
2022/05/23 13:31:25;;;;;;;6.35;5.32;;;27.90;99.90;;;;;;5042379;28;20501;-64
2022/05/23 13:33:54;;;;;;;8.30;5.30;;;28.00;99.90;;;;;;5039321;28;20083;-64
2022/05/23 13:36:21;;;;;;;6.72;5.22;;;27.90;99.90;;;;;;5042714;28;20021;-66
2022/05/23 13:39:03;;;;;;;8.68;5.47;;;27.90;99.90;;;;;;5037433;28;20037;-67
2022/05/23 13:41:31;;;;;;;7.55;5.15;;;27.80;99.90;;;;;;5050223;28;20087;-63
2022/05/23 13:43:58;;;;;;;6.72;5.63;;;27.90;99.90;;;;;;5044337;28;20126;-63
2022/05/23 13:46:33;;;;;;;10.90;6.55;;;27.80;99.90;;;;;;5038287;28;20521;-63
2022/05/23 13:49:05;;;;;;;12.70;6.57;;;27.80;99.90;;;;;;5036474;28;20026;-63
2022/05/23 13:51:39;;;;;;;9.35;6.32;;;28.00;99.90;;;;;;5035245;28;20470;-63
2022/05/23 13:54:07;;;;;;;8.77;6.68;;;28.20;99.90;;;;;;5038413;28;20427;-63
2022/05/23 13:56:41;;;;;;;8.45;6.65;;;28.20;99.90;;;;;;5040588;28;20025;-62
2022/05/23 13:59:21;;;;;;;7.65;6.22;;;28.30;99.90;;;;;;5042437;28;20037;-66
2022/05/23 14:01:55;;;;;;;9.32;6.95;;;28.30;99.90;;;;;;5045587;28;20029;-64